Time;durP1;ratioP1;P1;durP2;ratioP2;P2;SDS_P1;SDS_P2;PMS_P1;PMS_P2;Temp;Humidity;BMP_temperature;BMP_pressure;BME280_temperature;BME280_humidity;BME280_pressure;Samples;Min_cycle;Max_cycle;Signal;HPM_P1;HPM_P2
2022/08/05 00:00:15;;;;;;;5.15;2.10;;;17.80;99.90;;;;;;5040771;28;20120;-69
2022/08/05 00:02:41;;;;;;;4.18;2.13;;;17.80;99.90;;;;;;5042831;28;20397;-69
2022/08/05 00:05:07;;;;;;;5.65;2.13;;;17.90;99.90;;;;;;5039945;28;20044;-70
2022/08/05 00:07:32;;;;;;;4.47;2.20;;;17.90;99.90;;;;;;5040692;28;20041;-69
2022/08/05 00:09:58;;;;;;;4.95;2.20;;;17.90;99.90;;;;;;5039690;28;20476;-69
2022/08/05 00:12:23;;;;;;;4.63;2.17;;;17.90;99.90;;;;;;5036947;28;20048;-69
2022/08/05 00:14:49;;;;;;;4.07;2.03;;;17.90;99.90;;;;;;5043683;28;20059;-70
2022/08/05 00:17:15;;;;;;;5.53;2.10;;;17.90;99.90;;;;;;5037651;28;20046;-70
2022/08/05 00:19:40;;;;;;;3.88;2.20;;;17.90;99.90;;;;;;5041689;28;20033;-69
2022/08/05 00:22:06;;;;;;;4.45;2.00;;;17.90;99.90;;;;;;5040128;28;20048;-69
2022/08/05 00:24:32;;;;;;;4.32;1.77;;;17.80;99.90;;;;;;5041002;28;20037;-70
2022/08/05 00:26:59;;;;;;;3.10;1.80;;;17.80;99.90;;;;;;5037989;28;20072;-69
2022/08/05 00:29:25;;;;;;;4.38;2.22;;;17.80;99.90;;;;;;5041902;28;20052;-70
2022/08/05 00:31:50;;;;;;;3.47;2.05;;;17.80;99.90;;;;;;5039242;28;20041;-70
2022/08/05 00:34:16;;;;;;;4.13;2.28;;;17.80;99.90;;;;;;5040493;28;20037;-69
2022/08/05 00:36:42;;;;;;;3.53;2.20;;;17.80;99.90;;;;;;5040594;28;20049;-69
2022/08/05 00:39:08;;;;;;;4.80;2.20;;;17.80;99.90;;;;;;5041642;28;20379;-70
2022/08/05 00:41:34;;;;;;;3.38;1.88;;;17.80;99.90;;;;;;5040171;28;20052;-69
2022/08/05 00:44:00;;;;;;;4.90;2.25;;;17.80;99.90;;;;;;5040984;28;20045;-70
2022/08/05 00:46:26;;;;;;;3.45;2.00;;;17.80;99.90;;;;;;5041626;28;20040;-70
2022/08/05 00:48:53;;;;;;;4.03;2.10;;;17.80;99.90;;;;;;5037914;28;20127;-69
2022/08/05 00:51:20;;;;;;;3.40;2.00;;;17.70;99.90;;;;;;5040395;28;20025;-70
2022/08/05 00:53:46;;;;;;;4.32;2.10;;;17.70;99.90;;;;;;5042409;28;20073;-69
2022/08/05 00:56:13;;;;;;;4.35;1.92;;;17.80;99.90;;;;;;5038276;28;20136;-69
2022/08/05 00:58:39;;;;;;;4.07;2.22;;;17.60;99.90;;;;;;5039044;28;20049;-69
2022/08/05 01:01:05;;;;;;;3.63;2.13;;;17.60;99.90;;;;;;5038549;28;20120;-69
2022/08/05 01:03:30;;;;;;;3.22;1.70;;;17.60;99.90;;;;;;5040600;28;20496;-69
2022/08/05 01:05:56;;;;;;;3.47;2.05;;;17.50;99.90;;;;;;5044075;28;20037;-69
2022/08/05 01:08:22;;;;;;;2.90;1.77;;;17.50;99.90;;;;;;5044278;28;20515;-69
2022/08/05 01:11:01;;;;;;;5.35;1.88;;;17.50;99.90;;;;;;5045556;28;20033;-69
2022/08/05 01:13:36;;;;;;;5.05;2.08;;;17.60;99.90;;;;;;5043499;28;20160;-69
2022/08/05 01:16:06;;;;;;;4.25;1.73;;;17.50;99.90;;;;;;5042687;28;20049;-70
2022/08/05 01:18:37;;;;;;;3.65;2.10;;;17.60;99.90;;;;;;5045212;28;20090;-69
2022/08/05 01:21:39;;;;;;;4.32;2.05;;;17.50;99.90;;;;;;5043299;28;20129;-70
2022/08/05 01:24:42;;;;;;;4.90;2.17;;;17.50;99.90;;;;;;5044795;28;20052;-70
2022/08/05 01:27:25;;;;;;;4.63;2.40;;;17.50;99.90;;;;;;5042201;28;20107;-69
2022/08/05 01:29:57;;;;;;;4.10;2.10;;;17.50;99.90;;;;;;5039612;28;20065;-69
2022/08/05 01:32:25;;;;;;;3.05;1.90;;;17.50;99.90;;;;;;5045273;28;20055;-69
2022/08/05 01:34:56;;;;;;;3.95;2.35;;;17.50;99.90;;;;;;5043953;28;20049;-69
2022/08/05 01:37:48;;;;;;;3.17;1.40;;;17.50;99.90;;;;;;5043913;28;20046;-69
2022/08/05 01:40:16;;;;;;;3.50;2.20;;;17.40;99.90;;;;;;5037821;28;20111;-69
2022/08/05 01:42:43;;;;;;;3.03;2.20;;;17.40;99.90;;;;;;5043640;28;20483;-68
2022/08/05 01:45:11;;;;;;;3.50;2.28;;;17.40;99.90;;;;;;5043474;28;20261;-69
2022/08/05 01:47:39;;;;;;;4.30;2.10;;;17.40;99.90;;;;;;5047007;28;20124;-69
2022/08/05 01:50:08;;;;;;;3.28;1.90;;;17.30;99.90;;;;;;5037196;28;20064;-69
2022/08/05 01:52:36;;;;;;;3.78;2.05;;;17.20;99.90;;;;;;5039201;28;20045;-69
2022/08/05 01:55:07;;;;;;;3.80;1.80;;;17.20;99.90;;;;;;5038849;28;20103;-69
2022/08/05 01:57:38;;;;;;;2.90;1.85;;;17.10;99.90;;;;;;5037864;28;20546;-69
2022/08/05 02:00:09;;;;;;;3.47;1.75;;;17.10;99.90;;;;;;5042420;28;20449;-69
2022/08/05 02:02:37;;;;;;;3.33;1.65;;;17.00;99.90;;;;;;5037400;28;20058;-69
2022/08/05 02:05:07;;;;;;;2.95;1.60;;;17.10;99.90;;;;;;5045980;28;20056;-69
2022/08/05 02:07:33;;;;;;;4.38;1.98;;;17.00;99.90;;;;;;5038145;28;20119;-69
2022/08/05 02:10:00;;;;;;;3.70;2.00;;;17.00;99.90;;;;;;5036300;28;20423;-68
2022/08/05 02:12:36;;;;;;;2.70;1.70;;;17.00;99.90;;;;;;5041315;28;20041;-69
2022/08/05 02:15:24;;;;;;;3.92;1.80;;;17.00;99.90;;;;;;5038270;28;20037;-69
2022/08/05 02:18:09;;;;;;;3.53;1.83;;;17.00;99.90;;;;;;5037339;28;20048;-69
2022/08/05 02:21:10;;;;;;;4.97;1.88;;;17.10;99.90;;;;;;5039951;28;20052;-70
2022/08/05 02:23:39;;;;;;;3.70;1.80;;;17.10;99.90;;;;;;5035094;28;20067;-70
2022/08/05 02:26:08;;;;;;;3.50;1.73;;;17.10;99.90;;;;;;5044882;28;20043;-70
2022/08/05 02:28:38;;;;;;;3.80;1.73;;;17.90;99.90;;;;;;5040262;28;20418;-70
2022/08/05 02:31:15;;;;;;;3.75;1.92;;;17.10;99.90;;;;;;5042915;28;20083;-70
2022/08/05 02:33:47;;;;;;;2.88;1.80;;;17.10;99.90;;;;;;5043533;28;20543;-69
2022/08/05 02:36:16;;;;;;;3.03;1.70;;;17.10;99.90;;;;;;5042178;28;20056;-70
2022/08/05 02:38:47;;;;;;;2.95;1.70;;;17.10;99.90;;;;;;5042986;28;20440;-70
2022/08/05 02:41:16;;;;;;;2.70;1.50;;;17.20;99.90;;;;;;5041985;28;20102;-70
2022/08/05 02:43:45;;;;;;;3.97;1.88;;;17.10;99.90;;;;;;5042355;28;20064;-70
2022/08/05 02:46:15;;;;;;;2.80;1.60;;;17.10;99.90;;;;;;5041522;28;20052;-70
2022/08/05 02:48:40;;;;;;;2.97;1.60;;;17.10;99.90;;;;;;5043920;28;20052;-69
2022/08/05 02:51:07;;;;;;;4.82;1.73;;;17.10;99.90;;;;;;5042418;28;20045;-68
2022/08/05 02:53:36;;;;;;;3.50;1.92;;;17.10;99.90;;;;;;5040517;28;20057;-68
2022/08/05 02:56:03;;;;;;;3.83;2.22;;;17.10;99.90;;;;;;5044173;28;20086;-69
2022/08/05 02:58:29;;;;;;;3.65;2.10;;;17.10;99.90;;;;;;5044098;28;20567;-69
2022/08/05 03:00:57;;;;;;;3.53;2.00;;;17.00;99.90;;;;;;5039430;28;20434;-69
2022/08/05 03:03:25;;;;;;;4.07;2.08;;;16.90;99.90;;;;;;5044120;28;20040;-68
2022/08/05 03:05:51;;;;;;;3.10;1.88;;;16.80;99.90;;;;;;5036734;28;20053;-69
2022/08/05 03:08:17;;;;;;;5.03;1.90;;;16.80;99.90;;;;;;5045011;28;20041;-69
2022/08/05 03:10:44;;;;;;;3.95;1.90;;;16.90;99.90;;;;;;5040774;28;20050;-69
2022/08/05 03:13:14;;;;;;;3.40;2.03;;;16.90;99.90;;;;;;5038858;28;20072;-69
2022/08/05 03:15:44;;;;;;;3.22;1.90;;;16.80;99.90;;;;;;5042185;28;20044;-69
2022/08/05 03:18:10;;;;;;;3.50;1.85;;;16.90;99.90;;;;;;5043379;28;20064;-69
2022/08/05 03:20:36;;;;;;;3.88;1.80;;;17.10;99.90;;;;;;5042052;28;20044;-69
2022/08/05 03:23:08;;;;;;;3.55;1.90;;;16.90;99.90;;;;;;5042313;28;20045;-69
2022/08/05 03:25:37;;;;;;;3.42;1.70;;;16.90;99.90;;;;;;5041327;28;20095;-69
2022/08/05 03:28:05;;;;;;;2.78;1.88;;;17.00;99.90;;;;;;5038012;28;20045;-69
2022/08/05 03:30:32;;;;;;;3.28;1.88;;;16.90;99.90;;;;;;5041013;28;20087;-69
2022/08/05 03:32:58;;;;;;;3.47;2.00;;;17.00;99.90;;;;;;5041887;28;20055;-69
2022/08/05 03:35:25;;;;;;;3.80;1.80;;;17.00;99.90;;;;;;5039744;28;20049;-69
2022/08/05 03:37:55;;;;;;;4.63;2.38;;;16.90;99.90;;;;;;5044090;28;20040;-69
2022/08/05 03:40:20;;;;;;;2.90;1.92;;;16.90;99.90;;;;;;5039965;28;20041;-69
2022/08/05 03:42:46;;;;;;;3.08;2.20;;;16.80;99.90;;;;;;5043440;28;20103;-69
2022/08/05 03:45:12;;;;;;;2.95;2.00;;;16.80;99.90;;;;;;5039545;28;20041;-69
2022/08/05 03:47:37;;;;;;;3.80;2.08;;;16.70;99.90;;;;;;5043559;28;20451;-69
2022/08/05 03:50:04;;;;;;;3.83;2.08;;;16.70;99.90;;;;;;5039372;28;20053;-69
2022/08/05 03:52:36;;;;;;;4.45;2.22;;;16.70;99.90;;;;;;5042503;28;20045;-69
2022/08/05 03:55:09;;;;;;;5.05;2.20;;;16.70;99.90;;;;;;5039354;28;20431;-69
2022/08/05 03:57:36;;;;;;;3.08;1.85;;;16.70;99.90;;;;;;5038549;28;20101;-69
2022/08/05 04:00:06;;;;;;;2.95;1.88;;;16.70;99.90;;;;;;5041067;28;20136;-69
2022/08/05 04:02:34;;;;;;;3.88;2.30;;;16.70;99.90;;;;;;5039816;28;20170;-69
2022/08/05 04:05:01;;;;;;;4.38;2.30;;;16.70;99.90;;;;;;5041959;28;20053;-69
2022/08/05 04:07:28;;;;;;;3.75;2.20;;;16.60;99.90;;;;;;5042039;28;20041;-68
2022/08/05 04:09:54;;;;;;;4.68;2.53;;;16.60;99.90;;;;;;5040455;28;20048;-69
2022/08/05 04:12:20;;;;;;;3.58;2.33;;;16.60;99.90;;;;;;5041845;28;20036;-69
2022/08/05 04:14:46;;;;;;;3.65;2.35;;;16.60;99.90;;;;;;5038225;28;20069;-69
2022/08/05 04:17:12;;;;;;;3.92;2.50;;;16.60;99.90;;;;;;5038007;28;20056;-69
2022/08/05 04:19:42;;;;;;;4.07;2.90;;;16.60;99.90;;;;;;5042274;28;20055;-69
2022/08/05 04:22:08;;;;;;;3.83;2.53;;;16.60;99.90;;;;;;5038386;28;20052;-69
2022/08/05 04:24:33;;;;;;;3.78;2.40;;;16.60;99.90;;;;;;5040817;28;20041;-69
2022/08/05 04:26:59;;;;;;;3.90;2.55;;;16.60;99.90;;;;;;5040539;28;20049;-69
2022/08/05 04:29:25;;;;;;;4.35;2.60;;;16.70;99.90;;;;;;5038729;28;20360;-69
2022/08/05 04:31:51;;;;;;;4.47;2.80;;;16.70;99.90;;;;;;5039110;28;20052;-69
2022/08/05 04:34:19;;;;;;;5.05;2.53;;;16.70;99.90;;;;;;5041160;28;20084;-69
2022/08/05 04:36:45;;;;;;;5.20;3.00;;;16.70;99.90;;;;;;5039594;28;20095;-68
2022/08/05 04:39:10;;;;;;;4.45;2.63;;;16.70;99.90;;;;;;5040151;28;20086;-69
2022/08/05 04:41:36;;;;;;;4.78;2.65;;;16.90;99.90;;;;;;5038734;28;20197;-69
2022/08/05 04:44:02;;;;;;;5.53;2.70;;;16.80;99.90;;;;;;5042148;28;20040;-69
2022/08/05 04:46:27;;;;;;;3.63;2.85;;;16.80;99.90;;;;;;5039676;28;20046;-69
2022/08/05 04:48:56;;;;;;;5.20;2.70;;;16.90;99.90;;;;;;5041716;28;20116;-69
2022/08/05 04:51:24;;;;;;;5.32;2.95;;;16.90;99.90;;;;;;5038736;28;20195;-69
2022/08/05 04:53:50;;;;;;;5.05;2.53;;;16.90;99.90;;;;;;5039793;28;20038;-69
2022/08/05 04:56:15;;;;;;;5.45;2.40;;;16.90;99.90;;;;;;5040159;28;20488;-69
2022/08/05 04:58:41;;;;;;;3.30;2.15;;;16.90;99.90;;;;;;5041223;28;20055;-68
2022/08/05 05:01:07;;;;;;;3.65;2.30;;;16.90;99.90;;;;;;5038340;28;20684;-69
2022/08/05 05:03:33;;;;;;;6.13;2.10;;;16.90;99.90;;;;;;5043129;28;20090;-68
2022/08/05 05:05:58;;;;;;;2.63;1.80;;;17.00;99.90;;;;;;5038508;28;20053;-69
2022/08/05 05:08:24;;;;;;;4.07;1.90;;;16.90;99.90;;;;;;5041139;28;20056;-69
2022/08/05 05:10:50;;;;;;;3.78;2.10;;;17.00;99.90;;;;;;5040340;28;20492;-69
2022/08/05 05:13:16;;;;;;;2.97;1.88;;;16.90;99.90;;;;;;5037152;28;20045;-69
2022/08/05 05:15:44;;;;;;;5.50;2.17;;;16.90;99.90;;;;;;5041824;28;20037;-69
2022/08/05 05:18:14;;;;;;;4.47;2.20;;;16.80;99.90;;;;;;5039890;28;20068;-68
2022/08/05 05:20:42;;;;;;;3.90;2.00;;;16.80;99.90;;;;;;5039733;28;20041;-68
2022/08/05 05:23:07;;;;;;;4.93;1.77;;;16.70;99.90;;;;;;5038355;28;20061;-69
2022/08/05 05:25:36;;;;;;;3.45;1.90;;;16.70;99.90;;;;;;5042800;28;20354;-69
2022/08/05 05:28:01;;;;;;;3.65;1.95;;;16.70;99.90;;;;;;5036883;28;20143;-69
2022/08/05 05:30:27;;;;;;;8.35;2.17;;;16.70;99.90;;;;;;5041415;28;20036;-69
2022/08/05 05:32:53;;;;;;;5.50;2.38;;;16.60;99.90;;;;;;5037931;28;20033;-69
2022/08/05 05:35:21;;;;;;;3.42;1.88;;;16.60;99.90;;;;;;5040905;28;20401;-69
2022/08/05 05:37:51;;;;;;;3.85;2.20;;;16.70;99.90;;;;;;5040351;28;20041;-69
2022/08/05 05:40:19;;;;;;;3.67;2.00;;;16.70;99.90;;;;;;5040354;28;20044;-69
2022/08/05 05:42:45;;;;;;;3.75;1.98;;;16.70;99.90;;;;;;5038688;28;20056;-69
2022/08/05 05:45:11;;;;;;;6.43;2.15;;;16.70;99.90;;;;;;5037658;28;20049;-69
2022/08/05 05:47:37;;;;;;;2.83;2.03;;;16.70;99.90;;;;;;5039563;28;20134;-69
2022/08/05 05:50:03;;;;;;;4.47;2.08;;;16.80;99.90;;;;;;5040156;28;20041;-68
2022/08/05 05:52:29;;;;;;;3.22;1.90;;;16.80;99.90;;;;;;5046461;28;20045;-69
2022/08/05 05:54:59;;;;;;;3.10;1.70;;;16.80;99.90;;;;;;5040581;28;20090;-69
2022/08/05 05:57:25;;;;;;;5.78;1.60;;;16.90;99.90;;;;;;5037649;28;20509;-69
2022/08/05 05:59:50;;;;;;;2.63;1.80;;;16.90;99.90;;;;;;5044056;28;20088;-69
2022/08/05 06:02:16;;;;;;;3.30;1.85;;;17.00;99.90;;;;;;5044807;28;20044;-69
2022/08/05 06:04:41;;;;;;;2.90;1.50;;;17.10;99.90;;;;;;5042383;28;20131;-69
2022/08/05 06:07:07;;;;;;;2.95;1.42;;;17.10;99.90;;;;;;5042470;28;20445;-69
2022/08/05 06:09:33;;;;;;;3.42;1.50;;;17.10;99.90;;;;;;5042664;28;20047;-69
2022/08/05 06:11:58;;;;;;;5.32;1.48;;;17.10;99.90;;;;;;5041466;28;20132;-69
2022/08/05 06:14:24;;;;;;;3.92;1.40;;;17.20;99.90;;;;;;5045851;28;20049;-69
2022/08/05 06:16:49;;;;;;;3.58;1.40;;;17.40;99.90;;;;;;5040471;28;20048;-69
2022/08/05 06:19:15;;;;;;;3.17;1.10;;;17.40;99.90;;;;;;5044169;28;20044;-69
2022/08/05 06:21:41;;;;;;;3.58;1.30;;;17.50;99.90;;;;;;5042091;28;20049;-69
2022/08/05 06:24:07;;;;;;;4.38;1.38;;;17.50;99.90;;;;;;5042461;28;20142;-69
2022/08/05 06:26:33;;;;;;;2.55;1.30;;;17.60;99.90;;;;;;5044004;28;20092;-69
2022/08/05 06:28:59;;;;;;;5.03;1.30;;;17.60;99.90;;;;;;5043130;28;20377;-69
2022/08/05 06:31:24;;;;;;;6.28;1.17;;;17.60;99.90;;;;;;5041159;28;20037;-69
2022/08/05 06:33:50;;;;;;;7.05;1.50;;;17.60;99.90;;;;;;5045149;28;20095;-69
2022/08/05 06:36:15;;;;;;;2.85;1.10;;;17.60;99.90;;;;;;5040963;28;20045;-69
2022/08/05 06:38:41;;;;;;;3.60;1.13;;;17.60;99.90;;;;;;5041094;28;20038;-69
2022/08/05 06:41:07;;;;;;;4.53;1.20;;;17.60;99.90;;;;;;5044341;28;20037;-69
2022/08/05 06:43:33;;;;;;;6.13;1.23;;;17.70;99.90;;;;;;5043371;28;20051;-69
2022/08/05 06:45:59;;;;;;;2.67;1.15;;;17.70;99.90;;;;;;5042418;28;20038;-69
2022/08/05 06:48:24;;;;;;;2.90;1.02;;;17.60;99.90;;;;;;5042945;28;20044;-69
2022/08/05 06:50:50;;;;;;;3.83;1.30;;;17.70;99.90;;;;;;5040281;28;20060;-69
2022/08/05 06:53:16;;;;;;;3.75;1.17;;;17.70;99.90;;;;;;5040974;28;20042;-69
2022/08/05 06:55:41;;;;;;;4.13;1.02;;;17.80;99.90;;;;;;5035216;28;20117;-69
2022/08/05 06:58:07;;;;;;;2.97;1.10;;;17.80;99.90;;;;;;5043227;28;20057;-69
2022/08/05 07:00:32;;;;;;;3.92;1.20;;;17.90;99.90;;;;;;5041579;28;20077;-69
2022/08/05 07:02:58;;;;;;;5.78;1.15;;;17.90;99.90;;;;;;5042017;28;20054;-69
2022/08/05 07:05:25;;;;;;;3.55;1.02;;;18.00;99.90;;;;;;5043014;28;20072;-69
2022/08/05 07:07:50;;;;;;;2.90;1.10;;;18.10;99.90;;;;;;5039545;28;20052;-69
2022/08/05 07:10:16;;;;;;;3.25;1.00;;;18.30;99.90;;;;;;5042195;28;20037;-69
2022/08/05 07:18:10;;;;;;;5.18;1.20;;;18.90;99.90;;;;;;5037082;28;20569;-69
2022/08/05 07:20:36;;;;;;;5.43;1.13;;;19.00;99.90;;;;;;5044089;28;20115;-69
2022/08/05 07:23:02;;;;;;;2.58;1.00;;;19.10;99.90;;;;;;5039788;28;20045;-69
2022/08/05 07:25:27;;;;;;;2.78;1.00;;;19.10;99.90;;;;;;5042097;28;20124;-69
2022/08/05 07:27:54;;;;;;;3.92;1.10;;;19.20;99.90;;;;;;5040498;28;20086;-69
2022/08/05 07:30:20;;;;;;;3.75;1.10;;;19.30;99.90;;;;;;5042455;28;20072;-69
2022/08/05 07:32:46;;;;;;;1.90;0.85;;;19.30;99.90;;;;;;5043426;28;20048;-69
2022/08/05 07:35:12;;;;;;;2.00;0.80;;;19.50;99.90;;;;;;5040379;28;20044;-69
2022/08/05 07:37:38;;;;;;;2.80;0.90;;;19.80;99.90;;;;;;5042243;28;20106;-68
2022/08/05 07:40:05;;;;;;;3.58;1.02;;;20.70;99.90;;;;;;5034287;28;20446;-69
2022/08/05 07:42:31;;;;;;;5.03;1.17;;;21.30;99.90;;;;;;5042767;28;20051;-69
2022/08/05 07:44:57;;;;;;;2.38;0.60;;;21.40;99.90;;;;;;5039576;28;20045;-69
2022/08/05 07:47:23;;;;;;;3.40;0.90;;;21.20;99.90;;;;;;5042310;28;20034;-68
2022/08/05 07:49:51;;;;;;;3.20;1.20;;;22.40;99.90;;;;;;5042530;28;20064;-70
2022/08/05 07:52:20;;;;;;;2.33;0.95;;;22.70;99.90;;;;;;5040892;28;20052;-69
2022/08/05 07:54:46;;;;;;;2.03;0.85;;;23.10;99.90;;;;;;5040097;28;20041;-70
2022/08/05 07:57:12;;;;;;;2.15;0.80;;;22.90;99.90;;;;;;5040881;28;20160;-70
2022/08/05 07:59:38;;;;;;;2.80;0.90;;;23.00;99.90;;;;;;5043764;28;20037;-70
2022/08/05 08:02:06;;;;;;;2.92;0.80;;;23.10;99.90;;;;;;5038113;28;20049;-70
2022/08/05 08:04:32;;;;;;;2.63;0.93;;;23.60;98.40;;;;;;5035579;28;20088;-70
2022/08/05 08:06:59;;;;;;;3.67;0.70;;;24.60;98.00;;;;;;5041920;28;20111;-70
2022/08/05 08:09:25;;;;;;;3.15;0.73;;;25.30;97.10;;;;;;5037474;28;20041;-70
2022/08/05 08:11:51;;;;;;;2.17;0.77;;;26.00;94.80;;;;;;5040575;28;20189;-71
2022/08/05 08:14:17;;;;;;;1.55;0.60;;;26.70;94.50;;;;;;5040484;28;20128;-71
2022/08/05 08:16:42;;;;;;;1.88;0.65;;;27.10;93.10;;;;;;5040180;28;20076;-71
2022/08/05 08:19:08;;;;;;;2.72;0.75;;;27.10;94.40;;;;;;5040725;28;20075;-70
2022/08/05 08:21:34;;;;;;;3.28;0.60;;;27.50;92.70;;;;;;5042005;28;20068;-70
2022/08/05 08:24:07;;;;;;;2.25;0.77;;;27.80;92.50;;;;;;5033057;28;20057;-70
2022/08/05 08:26:33;;;;;;;2.58;0.57;;;28.20;90.80;;;;;;5036872;28;20378;-70
2022/08/05 08:28:59;;;;;;;0.93;0.47;;;28.60;92.10;;;;;;5039647;28;20062;-69
2022/08/05 08:31:24;;;;;;;1.90;0.52;;;28.20;90.00;;;;;;5042494;28;20036;-71
2022/08/05 08:33:50;;;;;;;1.85;0.60;;;28.40;90.50;;;;;;5038774;28;20049;-71
2022/08/05 08:36:16;;;;;;;1.25;0.55;;;28.80;90.60;;;;;;5040084;28;20087;-71
2022/08/05 08:38:41;;;;;;;2.05;0.65;;;29.00;90.30;;;;;;5039708;28;20088;-71
2022/08/05 08:41:09;;;;;;;1.58;0.52;;;29.20;88.40;;;;;;5037179;28;20493;-71
2022/08/05 08:43:37;;;;;;;2.28;0.40;;;29.20;86.90;;;;;;5041577;28;20513;-72
2022/08/05 08:46:03;;;;;;;1.70;0.60;;;29.50;86.40;;;;;;5040298;28;20050;-72
2022/08/05 08:48:31;;;;;;;1.88;0.57;;;29.60;85.90;;;;;;5041837;28;20080;-72
2022/08/05 08:50:58;;;;;;;1.95;0.60;;;29.60;84.70;;;;;;5037242;28;20037;-71
2022/08/05 08:53:26;;;;;;;1.65;0.60;;;29.90;84.30;;;;;;5041704;28;20091;-71
2022/08/05 08:55:53;;;;;;;4.65;0.93;;;29.90;81.90;;;;;;5039544;28;20047;-71
2022/08/05 08:58:19;;;;;;;1.60;0.40;;;29.80;83.00;;;;;;5040567;28;20059;-70
2022/08/05 09:00:46;;;;;;;1.77;0.47;;;29.80;82.20;;;;;;5038934;28;20041;-71
2022/08/05 09:03:11;;;;;;;2.10;0.50;;;29.20;83.20;;;;;;5041775;28;20052;-71
2022/08/05 09:05:40;;;;;;;0.50;0.40;;;29.40;82.60;;;;;;5039430;28;20111;-71
2022/08/05 09:08:06;;;;;;;2.58;0.70;;;29.80;82.30;;;;;;5040806;28;20045;-69
2022/08/05 09:10:32;;;;;;;2.63;0.60;;;30.00;82.40;;;;;;5040322;28;20037;-69
2022/08/05 09:12:58;;;;;;;1.85;0.38;;;30.30;82.80;;;;;;5037659;28;20500;-69
2022/08/05 09:15:24;;;;;;;1.35;0.30;;;30.40;79.90;;;;;;5043014;28;20384;-69
2022/08/05 09:17:50;;;;;;;0.93;0.50;;;30.50;80.10;;;;;;5037822;28;20044;-72
2022/08/05 09:20:16;;;;;;;1.13;0.32;;;31.10;80.00;;;;;;5040748;28;20047;-71
2022/08/05 09:23:09;;;;;;;1.67;0.50;;;31.20;78.70;;;;;;5038762;28;20045;-69
2022/08/05 09:25:37;;;;;;;1.65;0.50;;;30.90;75.10;;;;;;5039217;28;20044;-69
2022/08/05 09:28:12;;;;;;;2.28;0.47;;;31.30;78.10;;;;;;5043536;28;20065;-69
2022/08/05 09:30:42;;;;;;;2.00;0.40;;;31.50;75.80;;;;;;5044293;28;20041;-69
2022/08/05 09:33:08;;;;;;;0.57;0.38;;;31.60;75.40;;;;;;5044793;28;20362;-69
2022/08/05 09:35:33;;;;;;;1.58;0.55;;;31.60;75.50;;;;;;5044750;28;20500;-69
2022/08/05 09:37:59;;;;;;;1.33;0.50;;;31.50;78.20;;;;;;5044587;28;20045;-69
2022/08/05 09:40:29;;;;;;;0.30;0.25;;;31.50;77.60;;;;;;5040282;28;20040;-69
2022/08/05 09:42:55;;;;;;;1.15;0.47;;;31.40;77.10;;;;;;5042245;28;20470;-69
2022/08/05 09:45:33;;;;;;;1.13;0.57;;;30.90;76.20;;;;;;5045033;28;20049;-69
2022/08/05 09:47:59;;;;;;;0.63;0.30;;;31.00;75.50;;;;;;5041680;28;20038;-69
2022/08/05 09:50:37;;;;;;;1.90;0.50;;;30.80;76.40;;;;;;5043983;28;20083;-69
2022/08/05 09:53:02;;;;;;;1.58;0.50;;;30.70;76.80;;;;;;5043786;28;20047;-69
2022/08/05 09:55:34;;;;;;;1.17;0.40;;;30.70;76.60;;;;;;5040399;28;20041;-69
2022/08/05 09:58:12;;;;;;;2.38;0.60;;;31.10;76.70;;;;;;5043727;28;20467;-69
2022/08/05 10:00:38;;;;;;;3.33;0.80;;;31.30;77.90;;;;;;5045261;28;20074;-69
2022/08/05 10:03:09;;;;;;;1.45;0.60;;;30.70;78.60;;;;;;5042571;28;20073;-69
2022/08/05 10:05:36;;;;;;;1.20;0.40;;;30.30;77.90;;;;;;5045510;28;20055;-69
2022/08/05 10:08:05;;;;;;;0.85;0.50;;;29.80;76.70;;;;;;5042692;28;20100;-69
2022/08/05 10:10:36;;;;;;;1.83;0.43;;;30.30;77.90;;;;;;5043559;28;20099;-69
2022/08/05 10:13:03;;;;;;;1.98;0.50;;;30.20;76.60;;;;;;5041921;28;20099;-69
2022/08/05 10:15:39;;;;;;;3.00;0.73;;;30.50;78.20;;;;;;5044069;28;20167;-69
2022/08/05 10:18:21;;;;;;;1.40;0.47;;;30.30;79.30;;;;;;5041613;28;20070;-69
2022/08/05 10:20:54;;;;;;;1.38;0.40;;;30.20;78.60;;;;;;5040297;28;20049;-69
2022/08/05 10:23:31;;;;;;;0.43;0.25;;;30.80;77.00;;;;;;5043782;28;20039;-69
2022/08/05 10:26:00;;;;;;;3.10;0.52;;;30.80;74.60;;;;;;5044162;28;20054;-69
2022/08/05 10:28:27;;;;;;;0.82;0.50;;;30.30;75.30;;;;;;5043458;28;20483;-69
2022/08/05 10:30:54;;;;;;;0.98;0.50;;;29.80;75.10;;;;;;5042597;28;20485;-70
2022/08/05 10:33:22;;;;;;;1.60;0.50;;;29.50;76.20;;;;;;5038627;28;20401;-69
2022/08/05 10:35:52;;;;;;;1.80;0.52;;;29.60;77.40;;;;;;5042437;28;20469;-70
2022/08/05 10:38:22;;;;;;;1.27;0.60;;;29.50;76.50;;;;;;5043000;28;20037;-70
2022/08/05 10:40:48;;;;;;;1.52;0.60;;;29.30;78.30;;;;;;5043409;28;20088;-70
2022/08/05 10:43:36;;;;;;;3.88;0.65;;;29.50;76.50;;;;;;5042353;28;20468;-70
2022/08/05 10:46:06;;;;;;;2.83;0.65;;;29.90;77.10;;;;;;5040649;28;20566;-70
2022/08/05 10:48:35;;;;;;;1.15;0.40;;;30.60;78.10;;;;;;5039759;28;20400;-70
2022/08/05 10:51:01;;;;;;;1.65;0.50;;;30.60;75.20;;;;;;5039016;28;20503;-70
2022/08/05 10:53:36;;;;;;;2.13;0.70;;;29.90;77.00;;;;;;5043100;28;20053;-70
2022/08/05 10:56:16;;;;;;;1.48;0.47;;;29.40;76.10;;;;;;5040473;28;20528;-70
2022/08/05 10:58:54;;;;;;;2.78;0.55;;;29.40;76.30;;;;;;5040594;28;20057;-69
2022/08/05 11:01:30;;;;;;;1.85;0.40;;;28.80;76.30;;;;;;5041939;28;20049;-70
2022/08/05 11:04:07;;;;;;;1.25;0.52;;;28.50;77.10;;;;;;5039415;28;20053;-69
2022/08/05 11:06:35;;;;;;;1.73;0.40;;;28.50;78.00;;;;;;5036673;28;20041;-70
2022/08/05 11:09:10;;;;;;;1.60;0.50;;;28.30;77.80;;;;;;5037279;28;20060;-69
2022/08/05 11:11:36;;;;;;;;;;;28.40;77.60;;;;;;5038291;28;20469;-68
2022/08/05 11:14:03;;;;;;;4.07;0.60;;;28.00;78.20;;;;;;5043138;28;19972;-70
2022/08/05 11:16:29;;;;;;;0.63;0.38;;;27.40;79.20;;;;;;5037504;28;20053;-69
2022/08/05 11:19:22;;;;;;;0.63;0.40;;;26.90;79.70;;;;;;5040201;28;20049;-69
2022/08/05 11:21:48;;;;;;;0.80;0.40;;;26.50;80.50;;;;;;5040840;28;20136;-69
2022/08/05 11:24:14;;;;;;;0.70;0.38;;;26.30;81.20;;;;;;5041195;28;20112;-69
2022/08/05 11:26:40;;;;;;;1.17;0.65;;;25.90;80.80;;;;;;5041757;28;20547;-69
2022/08/05 11:29:05;;;;;;;1.70;0.45;;;25.90;82.20;;;;;;5040232;28;20076;-69
2022/08/05 11:31:31;;;;;;;0.95;0.40;;;25.70;83.20;;;;;;5043542;28;20080;-69
2022/08/05 11:34:06;;;;;;;2.15;0.82;;;25.40;82.60;;;;;;5033993;28;20458;-69
2022/08/05 11:36:45;;;;;;;1.98;0.70;;;25.00;82.20;;;;;;5038460;28;20041;-70
2022/08/05 11:39:17;;;;;;;0.95;0.50;;;24.60;84.10;;;;;;5041746;28;20139;-70
2022/08/05 11:41:50;;;;;;;2.40;0.52;;;24.50;84.10;;;;;;5043343;28;20033;-70
2022/08/05 11:44:18;;;;;;;1.08;0.40;;;24.80;86.10;;;;;;5040586;28;20048;-70
2022/08/05 11:46:49;;;;;;;1.42;0.47;;;25.70;86.10;;;;;;5042547;28;20108;-70
2022/08/05 11:49:17;;;;;;;1.25;0.50;;;25.90;82.70;;;;;;5039883;28;20111;-70
2022/08/05 11:51:44;;;;;;;0.75;0.50;;;25.80;82.20;;;;;;5040885;28;20045;-70
2022/08/05 11:54:23;;;;;;;1.98;0.57;;;25.60;82.00;;;;;;5039920;28;20128;-70
2022/08/05 11:56:50;;;;;;;1.42;0.50;;;25.50;83.40;;;;;;5039573;28;20128;-70
2022/08/05 11:59:21;;;;;;;0.90;0.50;;;24.90;83.10;;;;;;5041944;28;20049;-70
2022/08/05 12:02:00;;;;;;;0.77;0.40;;;25.20;83.80;;;;;;5040684;28;20041;-70
2022/08/05 12:04:36;;;;;;;2.15;0.50;;;25.10;83.80;;;;;;5034857;28;20124;-70
2022/08/05 12:07:04;;;;;;;1.33;0.50;;;25.00;82.50;;;;;;5042351;28;20049;-70
2022/08/05 12:09:37;;;;;;;1.70;0.50;;;24.80;84.00;;;;;;5039161;28;20087;-70
2022/08/05 12:12:04;;;;;;;1.35;0.60;;;25.10;84.00;;;;;;5041204;28;20059;-70
2022/08/05 12:14:43;;;;;;;1.52;0.38;;;25.20;84.10;;;;;;5039121;28;20052;-69
2022/08/05 12:17:15;;;;;;;2.25;0.63;;;25.00;81.70;;;;;;5041422;28;20044;-70
2022/08/05 12:19:47;;;;;;;1.90;0.60;;;25.10;83.10;;;;;;5041153;28;20047;-70
2022/08/05 12:22:15;;;;;;;3.85;0.60;;;25.70;84.30;;;;;;5040480;28;20045;-70
2022/08/05 12:24:46;;;;;;;2.95;0.90;;;25.50;84.60;;;;;;5039626;28;20052;-71
2022/08/05 12:27:25;;;;;;;1.70;0.63;;;25.80;83.30;;;;;;5042728;28;20125;-70
2022/08/05 12:30:09;;;;;;;3.40;0.98;;;25.90;82.90;;;;;;5034444;28;20136;-70
2022/08/05 12:32:43;;;;;;;1.98;0.60;;;26.30;83.10;;;;;;5040316;28;20045;-70
2022/08/05 12:35:09;;;;;;;2.15;1.02;;;26.60;83.00;;;;;;5037754;28;20481;-70
2022/08/05 12:37:36;;;;;;;1.67;0.70;;;26.50;80.90;;;;;;5041038;28;20096;-70
2022/08/05 12:40:02;;;;;;;2.05;0.50;;;26.50;81.60;;;;;;5041305;28;20037;-70
2022/08/05 12:42:29;;;;;;;1.55;0.50;;;26.30;81.60;;;;;;5041442;28;20041;-70
2022/08/05 12:45:06;;;;;;;5.32;1.63;;;25.80;82.00;;;;;;5039086;28;20111;-70
2022/08/05 12:47:32;;;;;;;6.88;1.67;;;24.90;86.60;;;;;;5040411;28;20056;-70
2022/08/05 12:49:59;;;;;;;5.60;1.30;;;24.50;88.40;;;;;;5035398;28;20049;-70
2022/08/05 12:52:25;;;;;;;16.30;8.95;;;24.10;89.30;;;;;;5040955;28;20037;-70
2022/08/05 12:54:50;;;;;;;10.43;5.88;;;24.00;90.50;;;;;;5041209;28;20106;-69
2022/08/05 12:57:17;;;;;;;7.78;3.72;;;23.80;90.10;;;;;;5038623;28;20398;-70
2022/08/05 12:59:52;;;;;;;6.70;3.65;;;23.80;89.00;;;;;;5041252;28;20041;-69